createdAt,value
2019-03-03T00:00:22.230Z,34.40
2019-03-03T00:02:50.585Z,32.70
2019-03-03T00:05:18.953Z,32.43
2019-03-03T00:07:47.325Z,34.87
2019-03-03T00:10:16.024Z,34.80
2019-03-03T00:12:44.329Z,35.47
2019-03-03T00:15:13.271Z,35.70
2019-03-03T00:17:41.653Z,35.88
2019-03-03T00:20:14.643Z,36.63
2019-03-03T00:22:43.012Z,36.07
2019-03-03T00:25:12.980Z,37.40
2019-03-03T00:27:41.269Z,39.33
2019-03-03T00:30:14.949Z,39.97
2019-03-03T00:32:43.275Z,36.45
2019-03-03T00:35:11.925Z,38.40
2019-03-03T00:37:58.334Z,36.40
2019-03-03T00:40:28.772Z,34.50
2019-03-03T00:43:04.303Z,33.85
2019-03-03T00:45:46.628Z,38.37
2019-03-03T00:48:22.529Z,38.80
2019-03-03T00:51:01.622Z,37.60
2019-03-03T00:53:38.628Z,38.05
2019-03-03T00:56:14.487Z,35.47
2019-03-03T00:58:44.695Z,37.83
2019-03-03T01:01:20.759Z,35.92
2019-03-03T01:03:53.685Z,35.80
2019-03-03T01:06:35.302Z,34.83
2019-03-03T01:09:11.482Z,33.53
2019-03-03T01:11:47.629Z,34.00
2019-03-03T01:14:17.642Z,35.90
2019-03-03T01:16:53.158Z,36.13
2019-03-03T01:19:38.314Z,32.30
2019-03-03T01:22:08.325Z,32.07
2019-03-03T01:24:38.269Z,31.05
2019-03-03T01:27:06.588Z,32.10
2019-03-03T01:29:35.612Z,29.80
2019-03-03T01:32:04.074Z,28.17
2019-03-03T01:34:32.778Z,32.80
2019-03-03T01:37:01.114Z,33.50
2019-03-03T01:39:29.429Z,31.45
2019-03-03T01:41:58.029Z,31.23
2019-03-03T01:44:26.716Z,29.90
2019-03-03T01:46:55.011Z,31.50
2019-03-03T01:49:23.336Z,31.60
2019-03-03T01:51:51.718Z,31.05
2019-03-03T01:54:20.040Z,32.20
2019-03-03T01:56:48.353Z,30.82
2019-03-03T01:59:16.695Z,33.98
2019-03-03T02:01:45.387Z,33.28
2019-03-03T02:04:13.687Z,30.97
2019-03-03T02:06:42.019Z,31.73
2019-03-03T02:09:11.897Z,33.07
2019-03-03T02:11:40.884Z,30.83
2019-03-03T02:14:09.194Z,32.20
2019-03-03T02:16:37.599Z,29.82
2019-03-03T02:19:05.901Z,31.83
2019-03-03T02:21:34.220Z,31.00
2019-03-03T02:24:02.523Z,28.60
2019-03-03T02:26:31.149Z,33.95
2019-03-03T02:28:59.476Z,28.70
2019-03-03T02:31:27.785Z,28.03
2019-03-03T02:33:56.108Z,29.77
2019-03-03T02:36:24.478Z,27.43
2019-03-03T02:38:52.799Z,27.63
2019-03-03T02:41:21.103Z,26.20
2019-03-03T02:43:50.195Z,24.17
2019-03-03T02:46:18.566Z,26.50
2019-03-03T02:48:46.935Z,24.63
2019-03-03T02:51:15.589Z,24.77
2019-03-03T02:53:43.882Z,25.40
2019-03-03T02:56:12.275Z,23.47
2019-03-03T02:58:40.647Z,24.90
2019-03-03T03:01:11.052Z,24.33
2019-03-03T03:03:39.428Z,22.73
2019-03-03T03:06:12.381Z,23.50
2019-03-03T03:08:45.110Z,22.87
2019-03-03T03:11:21.262Z,22.80
2019-03-03T03:14:03.032Z,23.07
2019-03-03T03:16:33.008Z,21.20
2019-03-03T03:19:08.692Z,21.80
2019-03-03T03:21:44.784Z,24.30
2019-03-03T03:24:20.633Z,21.17
2019-03-03T03:26:53.329Z,21.27
2019-03-03T03:29:28.957Z,21.30
2019-03-03T03:32:01.487Z,19.95
2019-03-03T03:34:34.015Z,18.97
2019-03-03T03:37:06.717Z,20.00
2019-03-03T03:39:42.828Z,19.02
2019-03-03T03:42:15.489Z,20.53
2019-03-03T03:44:51.166Z,19.67
2019-03-03T03:47:37.434Z,18.30
2019-03-03T03:50:15.786Z,19.37
2019-03-03T03:52:54.223Z,18.03
2019-03-03T03:55:27.126Z,16.73
2019-03-03T03:57:57.071Z,17.23
2019-03-03T04:00:30.473Z,17.47
2019-03-03T04:03:17.185Z,18.43
2019-03-03T04:05:59.136Z,17.33
2019-03-03T04:08:32.080Z,17.20
2019-03-03T04:11:16.664Z,17.10
2019-03-03T04:13:52.803Z,17.73
2019-03-03T04:16:22.751Z,19.80
2019-03-03T04:19:08.768Z,18.10
2019-03-03T04:21:44.409Z,18.00
2019-03-03T04:24:17.101Z,19.23
2019-03-03T04:26:49.654Z,20.40
2019-03-03T04:29:37.428Z,19.77
2019-03-03T04:32:25.647Z,18.50
2019-03-03T04:34:55.940Z,19.87
2019-03-03T04:37:40.656Z,17.60
2019-03-03T04:40:16.322Z,19.10
2019-03-03T04:42:46.264Z,19.50
2019-03-03T04:45:16.309Z,19.35
2019-03-03T04:47:55.214Z,17.50
2019-03-03T04:50:27.864Z,17.10
2019-03-03T04:53:04.272Z,18.20
2019-03-03T04:55:40.207Z,18.60
2019-03-03T04:58:19.064Z,16.42
2019-03-03T05:00:57.990Z,15.23
2019-03-03T05:03:27.929Z,17.23
2019-03-03T05:06:14.396Z,16.93
2019-03-03T05:08:47.207Z,17.00
2019-03-03T05:11:31.669Z,14.73
2019-03-03T05:14:01.615Z,16.63
2019-03-03T05:16:34.666Z,16.53
2019-03-03T05:19:04.705Z,13.30
2019-03-03T05:21:33.275Z,12.17
2019-03-03T05:24:01.597Z,11.53
2019-03-03T05:26:30.249Z,11.90
2019-03-03T05:28:58.639Z,10.28
2019-03-03T05:31:26.940Z,9.57
2019-03-03T05:33:55.258Z,9.60
2019-03-03T05:36:23.555Z,9.23
2019-03-03T05:38:51.940Z,8.90
2019-03-03T05:41:20.242Z,8.23
2019-03-03T05:43:48.575Z,7.90
2019-03-03T05:46:16.877Z,9.30
2019-03-03T05:48:45.176Z,7.30
2019-03-03T05:51:13.856Z,6.50
2019-03-03T05:53:42.158Z,6.80
2019-03-03T05:56:10.479Z,7.07
2019-03-03T05:58:38.777Z,7.73
2019-03-03T06:01:07.097Z,7.13
2019-03-03T06:03:35.394Z,5.87
2019-03-03T06:06:03.757Z,7.00
2019-03-03T06:08:32.080Z,6.47
2019-03-03T06:11:00.370Z,5.47
2019-03-03T06:13:28.683Z,6.20
2019-03-03T06:15:56.985Z,5.67
2019-03-03T06:18:25.320Z,5.73
2019-03-03T06:20:53.694Z,6.40
2019-03-03T06:23:21.989Z,5.53
2019-03-03T06:25:50.305Z,5.70
2019-03-03T06:28:18.605Z,6.47
2019-03-03T06:30:46.937Z,5.20
2019-03-03T06:33:15.312Z,5.35
2019-03-03T06:35:43.704Z,6.50
2019-03-03T06:38:11.999Z,5.83
2019-03-03T06:40:40.309Z,6.00
2019-03-03T06:43:08.952Z,5.30
2019-03-03T06:45:37.253Z,5.53
2019-03-03T06:48:06.441Z,6.00
2019-03-03T06:50:34.748Z,5.47
2019-03-03T06:53:03.145Z,5.00
2019-03-03T06:55:31.796Z,5.23
2019-03-03T06:58:00.132Z,6.20
2019-03-03T07:00:28.554Z,7.00
2019-03-03T07:02:56.859Z,5.43
2019-03-03T07:05:26.069Z,5.23
2019-03-03T07:07:55.020Z,5.70
2019-03-03T07:10:23.337Z,4.93
2019-03-03T07:12:51.647Z,5.17
2019-03-03T07:15:20.075Z,5.93
2019-03-03T07:17:48.398Z,6.97
2019-03-03T07:20:16.857Z,5.00
2019-03-03T07:22:45.243Z,5.50
2019-03-03T07:25:14.380Z,5.37
2019-03-03T07:27:43.055Z,5.63
2019-03-03T07:30:14.085Z,5.80
2019-03-03T07:32:44.090Z,4.70
2019-03-03T07:35:12.474Z,5.00
2019-03-03T07:37:40.840Z,5.00
2019-03-03T07:40:09.227Z,4.87
2019-03-03T07:42:38.024Z,6.30
2019-03-03T07:45:12.390Z,4.80
2019-03-03T07:47:40.687Z,3.77
2019-03-03T07:50:09.289Z,5.03
2019-03-03T07:52:37.682Z,4.35
2019-03-03T07:55:08.626Z,4.83
2019-03-03T07:57:37.319Z,5.70
2019-03-03T08:00:11.242Z,4.93
2019-03-03T08:02:39.550Z,5.10
2019-03-03T08:05:09.388Z,4.53
2019-03-03T08:07:37.838Z,4.20
2019-03-03T08:10:13.670Z,4.30
2019-03-03T08:12:42.039Z,4.63
2019-03-03T08:15:15.614Z,4.30
2019-03-03T08:17:43.912Z,4.47
2019-03-03T08:20:13.941Z,4.70
2019-03-03T08:22:42.412Z,4.73
2019-03-03T08:25:11.906Z,3.70
2019-03-03T08:27:40.510Z,4.17
2019-03-03T08:30:16.692Z,4.73
2019-03-03T08:32:45.076Z,4.10
2019-03-03T08:35:22.350Z,3.83
2019-03-03T08:37:51.031Z,4.70
2019-03-03T08:40:19.332Z,4.30
2019-03-03T08:42:57.808Z,3.67
2019-03-03T08:45:36.644Z,3.77
2019-03-03T08:48:07.301Z,3.70
2019-03-03T08:50:45.812Z,4.47
2019-03-03T08:53:18.550Z,3.70
2019-03-03T08:56:04.954Z,3.47
2019-03-03T08:58:40.443Z,4.33
2019-03-03T09:01:16.917Z,4.70
2019-03-03T09:03:49.840Z,2.73
2019-03-03T09:06:22.247Z,3.97
2019-03-03T09:08:52.211Z,2.40
2019-03-03T09:11:31.189Z,1.63
2019-03-03T09:14:04.537Z,1.90
2019-03-03T09:16:50.716Z,1.87
2019-03-03T09:19:20.661Z,1.47
2019-03-03T09:21:56.471Z,1.10
2019-03-03T09:24:26.643Z,1.83
2019-03-03T09:27:05.832Z,1.90
2019-03-03T09:29:36.096Z,1.27
2019-03-03T09:32:08.777Z,0.93
2019-03-03T09:34:55.304Z,1.67
2019-03-03T09:37:37.597Z,1.57
2019-03-03T09:40:16.183Z,1.60
2019-03-03T09:42:54.927Z,1.50
2019-03-03T09:45:24.911Z,2.10
2019-03-03T09:47:54.852Z,1.83
2019-03-03T09:50:24.850Z,1.60
2019-03-03T09:52:54.874Z,1.60
2019-03-03T09:55:30.690Z,1.52
2019-03-03T09:58:00.647Z,2.20
2019-03-03T10:00:48.952Z,1.90
2019-03-03T10:03:24.926Z,2.50
2019-03-03T10:05:54.932Z,1.90
2019-03-03T10:08:25.063Z,1.50
2019-03-03T10:11:10.223Z,2.67
2019-03-03T10:13:46.088Z,1.30
2019-03-03T10:16:33.086Z,2.97
2019-03-03T10:19:09.049Z,3.57
2019-03-03T10:21:41.873Z,1.23
2019-03-03T10:24:17.782Z,1.70
2019-03-03T10:26:59.521Z,1.27
2019-03-03T10:29:45.784Z,1.50
2019-03-03T10:32:32.113Z,1.60
2019-03-03T10:35:04.898Z,1.53
2019-03-03T10:37:43.686Z,2.00
2019-03-03T10:40:16.462Z,1.80
2019-03-03T10:42:52.275Z,1.60
2019-03-03T10:45:22.245Z,1.62
2019-03-03T10:47:52.208Z,1.70
2019-03-03T10:50:28.442Z,2.03
2019-03-03T10:53:01.006Z,1.60
2019-03-03T10:55:36.848Z,1.20
2019-03-03T10:58:09.671Z,1.50
2019-03-03T11:00:40.003Z,1.37
2019-03-03T11:03:18.716Z,1.47
2019-03-03T11:05:54.250Z,1.50
2019-03-03T11:08:24.262Z,1.60
2019-03-03T11:11:06.377Z,1.93
2019-03-03T11:13:36.615Z,1.30
2019-03-03T11:16:22.904Z,1.33
2019-03-03T11:19:08.686Z,1.60
2019-03-03T11:21:44.659Z,1.67
2019-03-03T11:24:14.602Z,1.87
2019-03-03T11:26:47.583Z,1.33
2019-03-03T11:29:17.518Z,1.93
2019-03-03T11:31:47.491Z,1.47
2019-03-03T11:34:29.845Z,1.43
2019-03-03T11:37:05.988Z,1.73
2019-03-03T11:39:52.343Z,1.90
2019-03-03T11:42:37.391Z,2.00
2019-03-03T11:45:16.406Z,1.60
2019-03-03T11:47:47.759Z,1.60
2019-03-03T11:50:17.836Z,1.70
2019-03-03T11:52:56.522Z,2.10
2019-03-03T11:55:26.479Z,1.60
2019-03-03T11:58:11.465Z,1.57
2019-03-03T12:00:41.724Z,1.77
2019-03-03T12:03:26.946Z,1.90
2019-03-03T12:05:56.980Z,1.93
2019-03-03T12:08:36.069Z,2.03
2019-03-03T12:11:09.344Z,1.60
2019-03-03T12:13:57.610Z,1.60
2019-03-03T12:16:30.687Z,2.00
2019-03-03T12:19:01.744Z,1.80
2019-03-03T12:21:46.728Z,1.50
2019-03-03T12:24:22.809Z,1.80
2019-03-03T12:27:11.964Z,1.42
2019-03-03T12:29:57.980Z,1.70
2019-03-03T12:32:30.706Z,2.00
2019-03-03T12:35:03.761Z,1.63
2019-03-03T12:37:33.706Z,1.15
2019-03-03T12:40:06.105Z,1.80
2019-03-03T12:42:51.984Z,1.47
2019-03-03T12:45:34.600Z,2.50
2019-03-03T12:48:22.720Z,1.43
2019-03-03T12:51:01.482Z,1.30
2019-03-03T12:53:31.423Z,1.50
2019-03-03T12:56:01.383Z,1.60
2019-03-03T12:58:33.788Z,1.27
2019-03-03T13:01:19.990Z,2.00
2019-03-03T13:03:55.468Z,1.95
2019-03-03T13:06:34.509Z,1.80
2019-03-03T13:09:07.451Z,1.30
2019-03-03T13:11:55.796Z,1.37
2019-03-03T13:14:26.034Z,1.47
2019-03-03T13:17:01.981Z,1.73
2019-03-03T13:19:46.868Z,1.50
2019-03-03T13:22:28.542Z,1.30
2019-03-03T13:25:04.664Z,1.77
2019-03-03T13:27:34.606Z,1.60
2019-03-03T13:30:08.076Z,1.40
2019-03-03T13:32:54.209Z,1.00
2019-03-03T13:35:27.235Z,1.30
2019-03-03T13:38:12.266Z,1.20
2019-03-03T13:40:42.618Z,2.90
2019-03-03T13:43:10.998Z,1.98
2019-03-03T13:45:39.303Z,1.20
2019-03-03T13:48:07.975Z,1.10
2019-03-03T13:50:36.270Z,1.63
2019-03-03T13:53:04.657Z,1.10
2019-03-03T13:55:33.017Z,1.13
2019-03-03T13:58:01.710Z,1.23
2019-03-03T14:00:30.166Z,1.10
2019-03-03T14:02:58.678Z,1.33
2019-03-03T14:05:27.037Z,1.40
2019-03-03T14:07:55.538Z,2.23
2019-03-03T14:10:24.281Z,2.00
2019-03-03T14:12:52.671Z,2.25
2019-03-03T14:15:21.154Z,1.37
2019-03-03T14:17:49.565Z,1.10
2019-03-03T14:20:22.766Z,0.80
2019-03-03T14:22:53.507Z,1.70
2019-03-03T14:25:21.975Z,1.32
2019-03-03T14:27:50.374Z,1.27
2019-03-03T14:30:21.381Z,1.00
2019-03-03T14:32:49.838Z,1.40
2019-03-03T14:35:18.593Z,1.07
2019-03-03T14:37:47.285Z,1.20
2019-03-03T14:40:18.889Z,1.20
2019-03-03T14:42:47.190Z,1.10
2019-03-03T14:45:17.542Z,0.90
2019-03-03T14:47:45.933Z,1.10
2019-03-03T14:50:17.441Z,1.10
2019-03-03T14:52:47.882Z,1.27
2019-03-03T14:55:20.644Z,1.10
2019-03-03T14:57:48.980Z,1.23
2019-03-03T15:00:25.175Z,1.27
2019-03-03T15:02:54.035Z,1.50
2019-03-03T15:05:22.519Z,1.17
2019-03-03T15:07:51.006Z,0.90
2019-03-03T15:10:19.366Z,1.40
2019-03-03T15:12:49.010Z,1.00
2019-03-03T15:15:22.682Z,1.00
2019-03-03T15:17:50.998Z,1.20
2019-03-03T15:20:19.560Z,2.02
2019-03-03T15:22:47.900Z,1.03
2019-03-03T15:25:16.366Z,1.30
2019-03-03T15:27:45.327Z,1.30
2019-03-03T15:30:21.588Z,1.10
2019-03-03T15:32:50.021Z,1.70
2019-03-03T15:35:18.876Z,1.57
2019-03-03T15:37:47.515Z,1.00
2019-03-03T15:40:27.821Z,1.10
2019-03-03T15:42:56.108Z,2.00
2019-03-03T15:45:26.940Z,1.50
2019-03-03T15:47:55.228Z,1.40
2019-03-03T15:50:23.599Z,1.57
2019-03-03T15:52:52.292Z,1.90
2019-03-03T15:55:26.422Z,1.57
2019-03-03T15:57:54.918Z,1.90
2019-03-03T16:00:26.155Z,1.20
2019-03-03T16:02:54.636Z,1.50
2019-03-03T16:05:23.002Z,1.87
2019-03-03T16:07:51.328Z,1.73
2019-03-03T16:10:22.790Z,1.70
2019-03-03T16:12:51.109Z,1.30
2019-03-03T16:15:19.633Z,2.12
2019-03-03T16:17:47.997Z,2.17
2019-03-03T16:20:18.743Z,2.03
2019-03-03T16:22:47.104Z,1.80
2019-03-03T16:25:18.225Z,1.87
2019-03-03T16:27:46.597Z,1.80
2019-03-03T16:30:19.968Z,2.10
2019-03-03T16:32:48.538Z,1.90
2019-03-03T16:35:17.110Z,1.90
2019-03-03T16:37:46.007Z,2.13
2019-03-03T16:40:39.544Z,3.43
2019-03-03T16:43:04.928Z,2.10
2019-03-03T16:45:33.391Z,2.30
2019-03-03T16:48:01.890Z,1.70
2019-03-03T16:50:30.281Z,2.20
2019-03-03T16:52:58.667Z,3.97
2019-03-03T16:55:27.019Z,2.40
2019-03-03T16:57:55.469Z,4.83
2019-03-03T17:00:25.433Z,7.30
2019-03-03T17:02:54.781Z,5.43
2019-03-03T17:05:25.236Z,3.50
2019-03-03T17:07:53.622Z,2.63
2019-03-03T17:10:22.003Z,2.50
2019-03-03T17:12:50.389Z,2.27
2019-03-03T17:15:27.464Z,3.00
2019-03-03T17:17:55.840Z,3.40
2019-03-03T17:20:24.133Z,5.40
2019-03-03T17:22:52.516Z,5.23
2019-03-03T17:25:26.127Z,22.87
2019-03-03T17:27:54.924Z,8.47
2019-03-03T17:30:25.839Z,6.47
2019-03-03T17:32:54.244Z,5.30
2019-03-03T17:35:22.633Z,3.35
2019-03-03T17:37:51.000Z,5.12
2019-03-03T17:40:23.941Z,3.17
2019-03-03T17:42:52.302Z,3.97
2019-03-03T17:45:22.183Z,3.80
2019-03-03T17:47:50.936Z,5.23
2019-03-03T17:50:27.818Z,4.43
2019-03-03T17:52:56.773Z,2.90
2019-03-03T17:55:25.584Z,3.27
2019-03-03T17:57:53.973Z,3.30
2019-03-03T18:00:26.015Z,3.40
2019-03-03T18:02:54.378Z,5.30
2019-03-03T18:05:22.847Z,4.58
2019-03-03T18:07:51.468Z,2.80
2019-03-03T18:10:19.866Z,4.03
2019-03-03T18:12:48.234Z,5.87
2019-03-03T18:15:17.702Z,5.17
2019-03-03T18:17:46.069Z,6.00
2019-03-03T18:20:16.890Z,5.67
2019-03-03T18:22:45.260Z,5.63
2019-03-03T18:25:16.268Z,3.73
2019-03-03T18:27:45.040Z,4.87
2019-03-03T18:30:25.548Z,4.40
2019-03-03T18:32:53.931Z,5.87
2019-03-03T18:35:22.303Z,4.57
2019-03-03T18:37:50.699Z,4.97
2019-03-03T18:40:24.469Z,4.33
2019-03-03T18:42:52.876Z,8.87
2019-03-03T18:45:22.866Z,8.10
2019-03-03T18:47:51.332Z,8.80
2019-03-03T18:50:24.849Z,8.33
2019-03-03T18:52:53.178Z,5.08
2019-03-03T18:55:21.921Z,5.60
2019-03-03T18:57:50.303Z,6.25
2019-03-03T19:00:26.691Z,7.00
2019-03-03T19:02:55.057Z,6.65
2019-03-03T19:05:23.552Z,5.77
2019-03-03T19:07:52.293Z,6.30
2019-03-03T19:10:25.719Z,5.80
2019-03-03T19:12:54.165Z,5.47
2019-03-03T19:15:22.665Z,5.53
2019-03-03T19:17:51.040Z,4.97
2019-03-03T19:20:21.555Z,5.67
2019-03-03T19:22:51.428Z,6.08
2019-03-03T19:25:20.678Z,5.53
2019-03-03T19:27:49.465Z,6.20
2019-03-03T19:30:26.453Z,7.97
2019-03-03T19:33:03.947Z,8.50
2019-03-03T19:35:32.338Z,8.40
2019-03-03T19:38:00.695Z,6.03
2019-03-03T19:40:29.459Z,7.47
2019-03-03T19:42:58.430Z,6.53
2019-03-03T19:45:38.563Z,5.50
2019-03-03T19:48:08.029Z,6.83
2019-03-03T19:50:36.414Z,6.40
2019-03-03T19:53:05.620Z,6.33
2019-03-03T19:55:34.093Z,6.43
2019-03-03T19:58:02.947Z,8.70
2019-03-03T20:00:41.728Z,10.40
2019-03-03T20:03:10.901Z,12.03
2019-03-03T20:05:39.281Z,10.17
2019-03-03T20:08:07.673Z,11.83
2019-03-03T20:10:36.171Z,11.87
2019-03-03T20:13:05.298Z,12.60
2019-03-03T20:15:33.764Z,11.90
2019-03-03T20:18:02.223Z,11.68
2019-03-03T20:20:30.619Z,12.80
2019-03-03T20:22:59.605Z,12.13
2019-03-03T20:25:28.356Z,9.77
2019-03-03T20:27:56.737Z,12.05
2019-03-03T20:30:25.733Z,10.10
2019-03-03T20:32:54.133Z,10.10
2019-03-03T20:35:22.601Z,10.20
2019-03-03T20:37:51.031Z,9.17
2019-03-03T20:40:24.927Z,8.70
2019-03-03T20:42:54.590Z,10.55
2019-03-03T20:45:33.398Z,8.40
2019-03-03T20:48:02.095Z,7.65
2019-03-03T20:50:30.393Z,8.10
2019-03-03T20:52:58.694Z,10.13
2019-03-03T20:55:29.330Z,11.57
2019-03-03T20:57:57.808Z,7.37
2019-03-03T21:00:30.815Z,9.53
2019-03-03T21:02:59.469Z,11.07
2019-03-03T21:05:27.987Z,9.63
2019-03-03T21:07:56.359Z,9.37
2019-03-03T21:10:31.601Z,11.77
2019-03-03T21:12:59.985Z,11.20
2019-03-03T21:15:28.456Z,22.63
2019-03-03T21:17:56.781Z,12.35
2019-03-03T21:20:25.232Z,13.80
2019-03-03T21:22:53.847Z,11.20
2019-03-03T21:25:22.329Z,8.45
2019-03-03T21:27:50.623Z,9.60
2019-03-03T21:30:21.310Z,9.63
2019-03-03T21:32:50.087Z,9.83
2019-03-03T21:35:18.496Z,7.13
2019-03-03T21:37:46.903Z,7.50
2019-03-03T21:40:22.334Z,9.80
2019-03-03T21:42:50.667Z,8.37
2019-03-03T21:45:21.774Z,9.00
2019-03-03T21:47:50.138Z,9.07
2019-03-03T21:50:23.858Z,9.05
2019-03-03T21:52:52.206Z,9.40
2019-03-03T21:55:20.643Z,8.10
2019-03-03T21:57:49.090Z,9.13
2019-03-03T22:00:32.317Z,9.20
2019-03-03T22:03:00.686Z,8.70
2019-03-03T22:05:29.199Z,8.70
2019-03-03T22:07:57.784Z,10.17
2019-03-03T22:10:33.431Z,8.57
2019-03-03T22:13:04.779Z,9.00
2019-03-03T22:15:33.386Z,7.87
2019-03-03T22:18:01.912Z,8.13
2019-03-03T22:20:30.207Z,7.57
2019-03-03T22:22:58.859Z,8.53
2019-03-03T22:25:27.228Z,8.10
2019-03-03T22:27:55.550Z,8.10
2019-03-03T22:30:23.921Z,9.70
2019-03-03T22:32:52.294Z,8.60
2019-03-03T22:35:21.036Z,8.38
2019-03-03T22:37:49.608Z,7.03
2019-03-03T22:40:20.618Z,7.58
2019-03-03T22:42:49.071Z,8.47
2019-03-03T22:45:18.363Z,7.73
2019-03-03T22:47:46.711Z,7.33
2019-03-03T22:50:16.439Z,7.97
2019-03-03T22:52:45.068Z,7.83
2019-03-03T22:55:17.400Z,7.57
2019-03-03T22:57:46.098Z,7.27
2019-03-03T23:00:17.569Z,7.65
2019-03-03T23:02:45.950Z,7.10
2019-03-03T23:05:19.901Z,7.87
2019-03-03T23:07:51.699Z,7.58
2019-03-03T23:10:41.503Z,8.10
2019-03-03T23:13:25.406Z,6.80
2019-03-03T23:16:11.935Z,7.50
2019-03-03T23:18:52.205Z,8.60
2019-03-03T23:21:29.598Z,8.25
2019-03-03T23:24:13.225Z,7.37
2019-03-03T23:26:41.522Z,7.30
2019-03-03T23:29:10.204Z,8.63
2019-03-03T23:31:38.570Z,9.00
2019-03-03T23:34:06.923Z,8.80
2019-03-03T23:36:35.308Z,7.50
2019-03-03T23:39:05.573Z,8.10
2019-03-03T23:41:33.877Z,8.60
2019-03-03T23:44:02.194Z,8.83
2019-03-03T23:46:30.669Z,8.97
2019-03-03T23:48:58.991Z,9.43
2019-03-03T23:51:27.293Z,9.73
2019-03-03T23:53:55.626Z,8.40
2019-03-03T23:56:23.953Z,8.60
2019-03-03T23:58:52.333Z,9.70
